createdAt,value
2017-06-25T00:00:25.099Z,35.17
2017-06-25T00:02:52.631Z,35.37
2017-06-25T00:05:20.149Z,31.97
2017-06-25T00:07:48.428Z,36.40
2017-06-25T00:10:15.959Z,35.83
2017-06-25T00:12:43.467Z,34.37
2017-06-25T00:15:10.995Z,39.83
2017-06-25T00:17:38.511Z,35.43
2017-06-25T00:20:06.055Z,41.40
2017-06-25T00:22:33.571Z,39.43
2017-06-25T00:25:01.079Z,32.37
2017-06-25T00:27:28.599Z,35.80
2017-06-25T00:29:56.110Z,35.20
2017-06-25T00:32:23.636Z,34.27
2017-06-25T00:34:51.158Z,32.20
2017-06-25T00:37:19.466Z,32.27
2017-06-25T00:39:46.979Z,40.40
2017-06-25T00:42:14.487Z,34.63
2017-06-25T00:44:42.022Z,37.30
2017-06-25T00:47:10.295Z,32.43
2017-06-25T00:49:38.587Z,34.10
2017-06-25T00:52:06.098Z,35.50
2017-06-25T00:54:37.616Z,33.83
2017-06-25T00:57:05.123Z,34.00
2017-06-25T00:59:32.655Z,35.83
2017-06-25T01:02:00.166Z,40.53
2017-06-25T01:04:27.671Z,43.17
2017-06-25T01:06:55.194Z,46.67
2017-06-25T01:09:22.703Z,35.93
2017-06-25T01:11:50.237Z,37.47
2017-06-25T01:14:17.751Z,35.87
2017-06-25T01:16:46.023Z,32.87
2017-06-25T01:19:13.547Z,39.27
2017-06-25T01:21:41.059Z,37.50
2017-06-25T01:24:08.597Z,36.50
2017-06-25T01:26:36.107Z,35.93
2017-06-25T01:29:03.624Z,39.07
2017-06-25T01:31:31.157Z,36.13
2017-06-25T01:33:58.664Z,38.37
2017-06-25T01:36:26.211Z,40.73
2017-06-25T01:38:53.723Z,40.10
2017-06-25T01:41:21.230Z,33.90
2017-06-25T01:43:48.751Z,41.50
2017-06-25T01:46:16.260Z,37.73
2017-06-25T01:48:43.815Z,40.27
2017-06-25T01:51:11.319Z,39.20
2017-06-25T01:53:38.824Z,35.80
2017-06-25T01:56:06.351Z,41.10
2017-06-25T01:58:33.859Z,42.67
2017-06-25T02:01:01.395Z,42.37
2017-06-25T02:03:28.903Z,41.50
2017-06-25T02:05:56.410Z,51.70
2017-06-25T02:08:23.939Z,38.10
2017-06-25T02:10:52.215Z,39.60
2017-06-25T02:13:20.531Z,39.73
2017-06-25T02:15:48.034Z,38.80
2017-06-25T02:18:15.547Z,42.17
2017-06-25T02:20:43.072Z,41.63
2017-06-25T02:23:10.580Z,40.93
2017-06-25T02:25:38.122Z,43.67
2017-06-25T02:28:05.623Z,51.97
2017-06-25T02:30:33.135Z,42.87
2017-06-25T02:33:00.660Z,40.83
2017-06-25T02:35:28.931Z,41.00
2017-06-25T02:37:56.458Z,46.90
2017-06-25T02:40:23.966Z,42.03
2017-06-25T02:42:51.471Z,42.60
2017-06-25T02:45:18.995Z,41.93
2017-06-25T02:47:46.521Z,49.17
2017-06-25T02:50:14.819Z,43.30
2017-06-25T02:52:42.328Z,42.43
2017-06-25T02:55:09.835Z,47.57
2017-06-25T02:57:37.363Z,46.53
2017-06-25T03:00:04.875Z,46.60
2017-06-25T03:02:32.407Z,51.43
2017-06-25T03:04:59.915Z,47.00
2017-06-25T03:07:27.423Z,42.27
2017-06-25T03:09:54.946Z,47.80
2017-06-25T03:12:22.451Z,40.10
2017-06-25T03:14:49.979Z,43.53
2017-06-25T03:17:17.483Z,45.17
2017-06-25T03:19:44.987Z,44.57
2017-06-25T03:22:12.515Z,44.50
2017-06-25T03:24:40.023Z,42.80
2017-06-25T03:27:07.559Z,48.03
2017-06-25T03:29:35.063Z,46.20
2017-06-25T03:32:02.571Z,43.90
2017-06-25T03:34:30.099Z,46.00
2017-06-25T03:36:57.781Z,44.97
2017-06-25T03:39:25.339Z,41.67
2017-06-25T03:41:52.842Z,47.33
2017-06-25T03:44:20.356Z,48.93
2017-06-25T03:46:47.883Z,47.17
2017-06-25T03:49:15.390Z,48.40
2017-06-25T03:51:42.943Z,46.30
2017-06-25T03:54:10.452Z,51.17
2017-06-25T03:56:37.963Z,48.90
2017-06-25T03:59:05.488Z,47.73
2017-06-25T04:01:32.995Z,41.43
2017-06-25T04:04:01.295Z,45.40
2017-06-25T04:06:28.799Z,38.00
2017-06-25T04:08:56.310Z,41.40
2017-06-25T04:11:23.844Z,42.93
2017-06-25T04:13:52.119Z,42.40
2017-06-25T04:16:19.650Z,43.23
2017-06-25T04:18:47.156Z,37.93
2017-06-25T04:21:14.666Z,40.70
2017-06-25T04:23:42.192Z,38.90
2017-06-25T04:26:09.703Z,45.83
2017-06-25T04:28:37.239Z,40.50
2017-06-25T04:31:04.747Z,35.90
2017-06-25T04:33:32.258Z,37.50
2017-06-25T04:35:59.784Z,38.70
2017-06-25T04:38:27.290Z,42.07
2017-06-25T04:40:54.832Z,39.17
2017-06-25T04:43:22.339Z,38.63
2017-06-25T04:45:49.848Z,41.47
2017-06-25T04:48:17.370Z,38.77
2017-06-25T04:50:44.883Z,38.03
2017-06-25T04:53:12.407Z,38.03
2017-06-25T04:55:39.914Z,41.27
2017-06-25T04:58:07.458Z,38.83
2017-06-25T05:00:34.962Z,40.70
2017-06-25T05:03:02.471Z,36.37
2017-06-25T05:05:29.994Z,40.30
2017-06-25T05:07:57.498Z,43.87
2017-06-25T05:10:25.050Z,37.77
2017-06-25T05:12:53.470Z,44.10
2017-06-25T05:15:20.983Z,41.13
2017-06-25T05:17:48.503Z,41.27
2017-06-25T05:20:16.011Z,36.83
2017-06-25T05:22:43.542Z,37.27
2017-06-25T05:25:11.048Z,36.00
2017-06-25T05:27:39.327Z,35.53
2017-06-25T05:30:07.615Z,36.73
2017-06-25T05:32:35.127Z,38.20
2017-06-25T05:35:02.671Z,36.13
2017-06-25T05:37:30.181Z,32.60
2017-06-25T05:39:57.691Z,38.77
2017-06-25T05:42:25.225Z,34.03
2017-06-25T05:44:52.735Z,32.83
2017-06-25T05:47:21.047Z,35.30
2017-06-25T05:49:48.558Z,35.93
2017-06-25T05:52:16.067Z,29.20
2017-06-25T05:54:43.590Z,29.47
2017-06-25T05:57:11.872Z,30.60
2017-06-25T05:59:40.191Z,37.50
2017-06-25T06:02:07.703Z,32.43
2017-06-25T06:04:35.215Z,30.77
2017-06-25T06:07:02.743Z,36.33
2017-06-25T06:09:30.248Z,28.57
2017-06-25T06:11:57.774Z,31.83
2017-06-25T06:14:25.279Z,31.67
2017-06-25T06:16:52.791Z,32.57
2017-06-25T06:19:20.324Z,34.73
2017-06-25T06:21:47.831Z,40.57
2017-06-25T06:24:15.358Z,30.30
2017-06-25T06:26:42.871Z,33.63
2017-06-25T06:29:10.399Z,32.40
2017-06-25T06:31:37.918Z,30.97
2017-06-25T06:34:05.427Z,31.70
2017-06-25T06:36:32.970Z,29.07
2017-06-25T06:39:00.474Z,30.80
2017-06-25T06:41:28.751Z,29.60
2017-06-25T06:43:56.279Z,28.33
2017-06-25T06:46:23.787Z,33.23
2017-06-25T06:48:51.319Z,32.90
2017-06-25T06:51:18.825Z,32.07
2017-06-25T06:53:46.335Z,30.17
2017-06-25T06:56:13.863Z,34.87
2017-06-25T06:58:41.371Z,32.03
2017-06-25T07:01:09.675Z,27.80
2017-06-25T07:03:37.184Z,27.37
2017-06-25T07:06:04.696Z,26.43
2017-06-25T07:08:32.223Z,28.70
2017-06-25T07:10:59.730Z,31.60
2017-06-25T07:13:27.259Z,31.00
2017-06-25T07:15:54.766Z,27.40
2017-06-25T07:18:22.322Z,28.07
2017-06-25T07:20:49.827Z,26.03
2017-06-25T07:23:17.340Z,31.80
2017-06-25T07:25:44.899Z,26.93
2017-06-25T07:28:12.406Z,30.73
2017-06-25T07:30:39.943Z,30.23
2017-06-25T07:33:07.455Z,31.77
2017-06-25T07:35:34.963Z,31.00
2017-06-25T07:38:02.493Z,29.93
2017-06-25T07:40:30.002Z,27.43
2017-06-25T07:42:57.539Z,27.90
2017-06-25T07:45:25.057Z,29.90
2017-06-25T07:47:52.567Z,24.43
2017-06-25T07:50:20.103Z,30.53
2017-06-25T07:52:48.387Z,22.70
2017-06-25T07:55:16.674Z,27.60
2017-06-25T07:57:44.191Z,25.83
2017-06-25T08:00:11.728Z,24.17
2017-06-25T08:02:39.268Z,24.70
2017-06-25T08:05:06.783Z,24.83
2017-06-25T08:07:34.312Z,24.17
2017-06-25T08:10:01.819Z,26.00
2017-06-25T08:12:30.126Z,23.67
2017-06-25T08:14:57.639Z,25.63
2017-06-25T08:17:25.161Z,21.23
2017-06-25T08:19:52.686Z,25.87
2017-06-25T08:22:20.198Z,27.30
2017-06-25T08:24:47.719Z,26.13
2017-06-25T08:27:15.235Z,24.83
2017-06-25T08:29:42.762Z,28.50
2017-06-25T08:32:10.288Z,23.50
2017-06-25T08:34:37.807Z,21.30
2017-06-25T08:37:06.432Z,26.20
2017-06-25T08:39:33.935Z,22.67
2017-06-25T08:42:01.467Z,23.23
2017-06-25T08:44:28.975Z,24.10
2017-06-25T08:46:56.484Z,25.83
2017-06-25T08:49:24.007Z,29.37
2017-06-25T08:51:51.554Z,27.20
2017-06-25T08:54:19.087Z,26.47
2017-06-25T08:56:46.597Z,30.83
2017-06-25T08:59:14.115Z,23.33
2017-06-25T09:01:42.438Z,21.70
2017-06-25T09:04:09.976Z,23.03
2017-06-25T09:06:37.516Z,24.50
2017-06-25T09:09:05.068Z,21.37
2017-06-25T09:11:32.617Z,25.53
2017-06-25T09:14:00.146Z,26.13
2017-06-25T09:16:27.771Z,26.83
2017-06-25T09:18:55.311Z,23.00
2017-06-25T09:21:22.824Z,27.77
2017-06-25T09:23:50.691Z,27.43
2017-06-25T09:26:18.223Z,25.77
2017-06-25T09:28:45.918Z,25.30
2017-06-25T09:31:13.475Z,24.13
2017-06-25T09:33:40.992Z,32.00
2017-06-25T09:36:08.499Z,25.70
2017-06-25T09:38:36.027Z,28.67
2017-06-25T09:41:03.555Z,26.40
2017-06-25T09:43:31.088Z,25.40
2017-06-25T09:45:58.599Z,29.87
2017-06-25T09:48:26.107Z,25.20
2017-06-25T09:50:53.636Z,18.60
2017-06-25T09:53:21.143Z,19.10
2017-06-25T09:55:48.704Z,24.33
2017-06-25T09:58:16.227Z,25.13
2017-06-25T10:00:43.744Z,24.27
2017-06-25T10:03:11.271Z,24.50
2017-06-25T10:05:39.551Z,23.13
2017-06-25T10:08:07.087Z,24.10
2017-06-25T10:10:34.598Z,23.63
2017-06-25T10:13:02.106Z,20.30
2017-06-25T10:15:29.647Z,26.63
2017-06-25T10:17:57.161Z,22.53
2017-06-25T10:20:24.693Z,24.63
2017-06-25T10:22:52.975Z,25.27
2017-06-25T10:25:21.255Z,24.63
2017-06-25T10:27:48.779Z,26.40
2017-06-25T10:30:16.291Z,24.67
2017-06-25T10:32:43.819Z,23.10
2017-06-25T10:35:11.331Z,29.83
2017-06-25T10:37:38.842Z,23.30
2017-06-25T10:40:06.381Z,22.47
2017-06-25T10:42:33.895Z,22.20
2017-06-25T10:45:01.427Z,25.73
2017-06-25T10:47:28.943Z,24.90
2017-06-25T10:49:56.451Z,22.13
2017-06-25T10:52:23.984Z,23.33
2017-06-25T10:54:51.502Z,24.10
2017-06-25T10:57:19.031Z,23.33
2017-06-25T10:59:46.549Z,29.50
2017-06-25T11:02:14.087Z,24.70
2017-06-25T11:04:41.590Z,25.40
2017-06-25T11:07:09.095Z,24.70
2017-06-25T11:09:36.631Z,24.60
2017-06-25T11:12:04.148Z,20.93
2017-06-25T11:14:31.671Z,22.67
2017-06-25T11:16:59.183Z,21.30
2017-06-25T11:19:26.724Z,20.70
2017-06-25T11:21:54.230Z,25.73
2017-06-25T11:24:21.759Z,23.90
2017-06-25T11:26:49.281Z,26.30
2017-06-25T11:29:16.821Z,25.40
2017-06-25T11:31:44.328Z,22.77
2017-06-25T11:34:11.842Z,22.97
2017-06-25T11:36:39.370Z,21.17
2017-06-25T11:39:06.883Z,21.63
2017-06-25T11:41:34.412Z,25.07
2017-06-25T11:44:01.920Z,20.70
2017-06-25T11:46:29.454Z,16.70
2017-06-25T11:48:56.966Z,18.80
2017-06-25T11:51:24.499Z,18.13
2017-06-25T11:53:52.774Z,16.13
2017-06-25T11:56:20.283Z,18.63
2017-06-25T11:58:47.806Z,17.53
2017-06-25T12:01:15.314Z,16.37
2017-06-25T12:03:42.839Z,16.53
2017-06-25T12:06:10.348Z,18.53
2017-06-25T12:08:37.875Z,21.97
2017-06-25T12:11:05.391Z,13.83
2017-06-25T12:13:32.922Z,15.47
2017-06-25T12:16:00.432Z,15.90
2017-06-25T12:18:27.948Z,14.50
2017-06-25T12:20:55.470Z,13.63
2017-06-25T12:23:22.986Z,15.87
2017-06-25T12:25:50.515Z,17.40
2017-06-25T12:28:18.023Z,14.27
2017-06-25T12:30:45.553Z,13.87
2017-06-25T12:33:13.831Z,13.77
2017-06-25T12:35:42.123Z,14.10
2017-06-25T12:38:09.632Z,11.63
2017-06-25T12:40:37.139Z,13.50
2017-06-25T12:43:04.664Z,16.93
2017-06-25T12:45:32.167Z,12.57
2017-06-25T12:47:59.686Z,13.63
2017-06-25T12:50:27.194Z,13.87
2017-06-25T12:52:54.717Z,11.53
2017-06-25T12:55:22.991Z,13.67
2017-06-25T12:57:51.304Z,12.87
2017-06-25T13:00:18.811Z,12.57
2017-06-25T13:02:46.320Z,10.77
2017-06-25T13:05:13.839Z,11.37
2017-06-25T13:07:42.111Z,12.10
2017-06-25T13:10:09.636Z,14.20
2017-06-25T13:12:37.143Z,13.60
2017-06-25T13:15:04.667Z,13.10
2017-06-25T13:17:32.166Z,13.87
2017-06-25T13:19:59.695Z,13.20
2017-06-25T13:22:27.971Z,11.73
2017-06-25T13:24:55.483Z,12.47
2017-06-25T13:27:23.003Z,12.43
2017-06-25T13:29:51.275Z,14.10
2017-06-25T13:32:19.563Z,13.47
2017-06-25T13:34:47.067Z,12.43
2017-06-25T13:37:14.591Z,13.67
2017-06-25T13:39:42.099Z,10.17
2017-06-25T13:42:09.639Z,10.73
2017-06-25T13:44:37.149Z,11.87
2017-06-25T13:47:04.658Z,13.20
2017-06-25T13:49:32.183Z,15.03
2017-06-25T13:51:59.694Z,14.60
2017-06-25T13:54:27.215Z,11.90
2017-06-25T13:56:54.723Z,10.80
2017-06-25T13:59:22.242Z,9.60
2017-06-25T14:01:49.751Z,9.50
2017-06-25T14:04:18.256Z,9.57
2017-06-25T14:06:45.762Z,10.90
2017-06-25T14:09:13.263Z,11.30
2017-06-25T14:11:40.795Z,11.87
2017-06-25T14:14:09.072Z,11.30
2017-06-25T14:16:37.364Z,10.97
2017-06-25T14:19:05.645Z,13.83
2017-06-25T14:21:33.166Z,12.63
2017-06-25T14:24:00.674Z,12.50
2017-06-25T14:26:28.203Z,13.20
2017-06-25T14:28:55.711Z,16.53
2017-06-25T14:31:23.228Z,13.47
2017-06-25T14:33:51.514Z,12.63
2017-06-25T14:36:19.019Z,10.90
2017-06-25T14:38:46.549Z,14.60
2017-06-25T14:41:14.055Z,11.60
2017-06-25T14:43:41.579Z,14.73
2017-06-25T14:46:09.087Z,12.70
2017-06-25T14:48:37.395Z,13.40
2017-06-25T14:51:04.907Z,18.47
2017-06-25T14:53:32.410Z,21.07
2017-06-25T14:55:59.947Z,13.53
2017-06-25T14:58:28.220Z,13.20
2017-06-25T15:00:55.756Z,15.40
2017-06-25T15:03:23.274Z,15.13
2017-06-25T15:05:50.804Z,15.70
2017-06-25T15:08:18.310Z,13.57
2017-06-25T15:10:45.840Z,13.53
2017-06-25T15:13:13.355Z,12.43
2017-06-25T15:15:40.867Z,15.30
2017-06-25T15:18:08.391Z,20.10
2017-06-25T15:20:36.663Z,15.03
2017-06-25T15:23:04.196Z,12.07
2017-06-25T15:25:31.706Z,12.90
2017-06-25T15:27:59.231Z,13.20
2017-06-25T15:30:26.735Z,12.07
2017-06-25T15:32:54.263Z,39.90
2017-06-25T15:35:22.543Z,23.50
2017-06-25T15:37:50.063Z,16.70
2017-06-25T15:40:17.584Z,12.83
2017-06-25T15:42:45.087Z,11.90
2017-06-25T15:45:12.615Z,13.57
2017-06-25T15:47:40.127Z,11.47
2017-06-25T15:50:08.424Z,15.40
2017-06-25T15:52:35.926Z,12.53
2017-06-25T15:55:03.453Z,11.63
2017-06-25T15:57:30.967Z,20.40
2017-06-25T15:59:59.239Z,10.60
2017-06-25T16:02:26.778Z,34.43
2017-06-25T16:04:54.283Z,11.80
2017-06-25T16:07:21.811Z,12.23
2017-06-25T16:09:49.319Z,11.40
2017-06-25T16:12:16.842Z,15.23
2017-06-25T16:14:45.119Z,9.83
2017-06-25T16:17:13.428Z,14.10
2017-06-25T16:19:40.935Z,11.30
2017-06-25T16:22:08.444Z,11.80
2017-06-25T16:24:35.979Z,10.10
2017-06-25T16:27:03.491Z,11.70
2017-06-25T16:29:31.019Z,16.50
2017-06-25T16:31:58.527Z,10.90
2017-06-25T16:34:26.051Z,10.97
2017-06-25T16:36:53.559Z,12.10
2017-06-25T16:39:21.099Z,15.90
2017-06-25T16:41:48.612Z,15.80
2017-06-25T16:44:16.118Z,9.90
2017-06-25T16:46:43.647Z,11.70
2017-06-25T16:49:11.155Z,9.47
2017-06-25T16:51:39.443Z,12.13
2017-06-25T16:54:06.979Z,11.67
2017-06-25T16:56:34.511Z,11.07
2017-06-25T16:59:02.027Z,24.50
2017-06-25T17:01:29.560Z,12.90
2017-06-25T17:03:57.075Z,10.30
2017-06-25T17:06:24.580Z,9.63
2017-06-25T17:08:52.103Z,15.20
2017-06-25T17:11:19.607Z,11.60
2017-06-25T17:13:47.131Z,12.37
2017-06-25T17:16:14.643Z,11.40
2017-06-25T17:18:42.171Z,14.73
2017-06-25T17:21:10.446Z,16.00
2017-06-25T17:23:37.955Z,11.07
2017-06-25T17:26:05.487Z,12.73
2017-06-25T17:28:32.996Z,27.77
2017-06-25T17:31:00.523Z,19.60
2017-06-25T17:33:28.040Z,21.93
2017-06-25T17:35:57.171Z,18.90
2017-06-25T17:38:24.684Z,17.80
2017-06-25T17:40:52.959Z,16.70
2017-06-25T17:43:20.484Z,23.23
2017-06-25T17:45:47.991Z,15.77
2017-06-25T17:48:16.289Z,16.80
2017-06-25T17:50:43.807Z,11.10
2017-06-25T17:53:11.349Z,8.57
2017-06-25T17:55:38.862Z,8.50
2017-06-25T17:58:06.383Z,12.60
2017-06-25T18:00:33.890Z,7.83
2017-06-25T18:03:01.391Z,8.87
2017-06-25T18:05:28.913Z,10.10
2017-06-25T18:07:56.424Z,8.47
2017-06-25T18:10:23.948Z,9.50
2017-06-25T18:12:51.450Z,10.23
2017-06-25T18:15:19.744Z,8.37
2017-06-25T18:17:47.246Z,9.03
2017-06-25T18:20:14.760Z,9.60
2017-06-25T18:22:42.283Z,8.63
2017-06-25T18:25:09.792Z,12.47
2017-06-25T18:27:37.309Z,8.73
2017-06-25T18:30:04.815Z,9.80
2017-06-25T18:32:32.335Z,8.10
2017-06-25T18:34:59.860Z,8.20
2017-06-25T18:37:27.368Z,7.80
2017-06-25T18:39:54.898Z,9.13
2017-06-25T18:42:23.179Z,7.13
2017-06-25T18:44:50.709Z,7.23
2017-06-25T18:47:18.214Z,11.00
2017-06-25T18:49:45.730Z,8.33
2017-06-25T18:52:13.243Z,10.63
2017-06-25T18:54:40.751Z,10.60
2017-06-25T18:57:08.274Z,9.30
2017-06-25T18:59:35.779Z,8.30
2017-06-25T19:02:04.066Z,8.13
2017-06-25T19:04:32.339Z,6.90
2017-06-25T19:07:00.633Z,7.50
2017-06-25T19:09:28.148Z,9.67
2017-06-25T19:11:55.655Z,8.77
2017-06-25T19:14:23.184Z,10.63
2017-06-25T19:16:51.458Z,7.23
2017-06-25T19:19:19.748Z,8.27
2017-06-25T19:21:47.263Z,7.63
2017-06-25T19:24:14.794Z,7.60
2017-06-25T19:26:42.303Z,8.90
2017-06-25T19:29:09.811Z,12.90
2017-06-25T19:31:37.356Z,8.17
2017-06-25T19:34:04.863Z,9.00
2017-06-25T19:36:32.436Z,7.27
2017-06-25T19:38:59.940Z,7.90
2017-06-25T19:41:27.472Z,8.97
2017-06-25T19:43:55.788Z,8.97
2017-06-25T19:46:23.316Z,10.90
2017-06-25T19:48:50.843Z,6.57
2017-06-25T19:51:18.347Z,8.43
2017-06-25T19:53:45.873Z,8.53
2017-06-25T19:56:13.378Z,10.73
2017-06-25T19:58:40.905Z,13.67
2017-06-25T20:01:08.422Z,7.13
2017-06-25T20:03:35.961Z,8.70
2017-06-25T20:06:03.466Z,6.70
2017-06-25T20:08:30.975Z,9.13
2017-06-25T20:10:58.503Z,10.27
2017-06-25T20:13:26.027Z,9.97
2017-06-25T20:15:53.555Z,8.80
2017-06-25T20:18:21.062Z,7.93
2017-06-25T20:20:48.595Z,8.00
2017-06-25T20:23:16.103Z,10.80
2017-06-25T20:25:43.675Z,7.80
2017-06-25T20:28:11.201Z,9.57
2017-06-25T20:30:39.471Z,8.20
2017-06-25T20:33:06.991Z,9.50
2017-06-25T20:35:34.497Z,8.80
2017-06-25T20:38:02.027Z,8.00
2017-06-25T20:40:29.526Z,8.67
2017-06-25T20:42:57.035Z,8.30
2017-06-25T20:45:24.563Z,11.20
2017-06-25T20:47:52.075Z,8.57
2017-06-25T20:50:19.599Z,8.40
2017-06-25T20:52:47.103Z,7.03
2017-06-25T20:55:15.411Z,9.17
2017-06-25T20:57:42.915Z,8.00
2017-06-25T21:00:10.428Z,9.07
2017-06-25T21:02:37.958Z,11.47
2017-06-25T21:05:06.227Z,10.70
2017-06-25T21:07:34.506Z,9.63
2017-06-25T21:10:02.783Z,7.10
2017-06-25T21:12:31.075Z,7.47
2017-06-25T21:14:58.575Z,8.70
2017-06-25T21:17:26.101Z,8.60
2017-06-25T21:19:53.610Z,9.67
2017-06-25T21:22:21.111Z,9.23
2017-06-25T21:24:48.627Z,7.43
2017-06-25T21:27:16.131Z,8.10
2017-06-25T21:29:43.651Z,10.10
2017-06-25T21:32:11.160Z,10.27
2017-06-25T21:34:38.683Z,9.07
2017-06-25T21:37:06.191Z,11.17
2017-06-25T21:39:33.695Z,9.63
2017-06-25T21:42:01.219Z,8.93
2017-06-25T21:44:28.715Z,6.90
2017-06-25T21:46:57.003Z,11.10
2017-06-25T21:49:24.510Z,7.53
2017-06-25T21:51:52.038Z,10.63
2017-06-25T21:54:19.547Z,10.77
2017-06-25T21:56:47.059Z,10.70
2017-06-25T21:59:14.578Z,11.00
2017-06-25T22:01:42.083Z,9.60
2017-06-25T22:04:09.603Z,7.87
2017-06-25T22:06:37.103Z,9.00
2017-06-25T22:09:04.627Z,8.27
2017-06-25T22:11:32.127Z,14.97
2017-06-25T22:13:59.626Z,10.23
2017-06-25T22:16:27.147Z,9.63
2017-06-25T22:18:54.651Z,11.20
2017-06-25T22:21:22.179Z,11.00
2017-06-25T22:23:49.694Z,11.50
2017-06-25T22:26:17.239Z,11.03
2017-06-25T22:28:44.744Z,10.43
2017-06-25T22:31:12.247Z,10.30
2017-06-25T22:33:39.774Z,13.20
2017-06-25T22:36:07.280Z,10.40
2017-06-25T22:38:34.805Z,13.07
2017-06-25T22:41:03.075Z,11.10
2017-06-25T22:43:30.604Z,12.60
2017-06-25T22:45:58.106Z,15.37
2017-06-25T22:48:26.378Z,11.50
2017-06-25T22:50:53.899Z,10.30
2017-06-25T22:53:21.411Z,11.03
2017-06-25T22:55:48.931Z,11.50
2017-06-25T22:58:16.441Z,13.00
2017-06-25T23:00:43.967Z,11.37
2017-06-25T23:03:11.487Z,11.50
2017-06-25T23:05:38.990Z,18.00
2017-06-25T23:08:07.279Z,10.77
2017-06-25T23:10:34.782Z,11.87
2017-06-25T23:13:02.300Z,9.47
2017-06-25T23:15:29.811Z,11.83
2017-06-25T23:17:57.340Z,15.90
2017-06-25T23:20:24.843Z,12.23
2017-06-25T23:22:53.114Z,11.33
2017-06-25T23:25:20.635Z,9.53
2017-06-25T23:27:48.147Z,11.67
2017-06-25T23:30:15.670Z,11.87
2017-06-25T23:32:43.177Z,9.50
2017-06-25T23:35:10.707Z,11.37
2017-06-25T23:37:38.215Z,10.00
2017-06-25T23:40:05.714Z,10.63
2017-06-25T23:42:33.235Z,10.70
2017-06-25T23:45:00.744Z,12.40
2017-06-25T23:47:28.263Z,11.37
2017-06-25T23:49:55.766Z,12.97
2017-06-25T23:52:24.070Z,12.27
2017-06-25T23:54:51.575Z,10.70
2017-06-25T23:57:19.085Z,17.43
2017-06-25T23:59:46.610Z,15.83
